Time;durP1;ratioP1;P1;durP2;ratioP2;P2;SDS_P1;SDS_P2;PMS_P1;PMS_P2;Temp;Humidity;BMP_temperature;BMP_pressure;BME280_temperature;BME280_humidity;BME280_pressure;Samples;Min_cycle;Max_cycle;Signal;HPM_P1;HPM_P2
2022/07/01 00:00:18;;;;;;;;;;;;;;;28.74;47.62;98447.97;2091477;28;20043;-49
2022/07/01 00:01:18;;;;;;;;;;;;;;;28.74;47.62;98447.16;2090597;28;20122;-50
2022/07/01 00:02:20;;;;;;;;;;;;;;;28.73;47.83;98451.81;2089494;28;19924;-50
2022/07/01 00:03:20;;;;;;;;;;;;;;;28.73;47.72;98449.06;2090082;28;19933;-50
2022/07/01 00:04:25;;;;;;;;;;;;;;;28.72;47.51;98455.63;2089199;28;20031;-49
2022/07/01 00:05:25;;;;;;;;;;;;;;;28.72;47.44;98455.63;2088187;28;20492;-51
2022/07/01 00:06:27;;;;;;;;;;;;;;;28.73;47.77;98451.00;2088909;28;20015;-47
2022/07/01 00:07:27;;;;;;;;;;;;;;;28.72;47.65;98454.78;2089983;28;19925;-52
2022/07/01 00:08:29;;;;;;;;;;;;;;;28.72;47.52;98455.63;2088747;28;20361;-50
2022/07/01 00:09:30;;;;;;;;;;;;;;;28.71;47.50;98451.25;2089622;28;19928;-47
2022/07/01 00:10:31;;;;;;;;;;;;;;;28.73;47.35;98459.19;2082855;28;20011;-52
2022/07/01 00:11:32;;;;;;;;;;;;;;;28.72;47.69;98454.78;2088921;28;19931;-51
2022/07/01 00:12:34;;;;;;;;;;;;;;;28.71;47.70;98456.72;2088742;28;20032;-51
2022/07/01 00:13:35;;;;;;;;;;;;;;;28.71;47.47;98462.16;2088823;28;19924;-48
2022/07/01 00:14:36;;;;;;;;;;;;;;;28.72;47.61;98462.97;2091009;28;19943;-51
2022/07/01 00:15:39;;;;;;;;;;;;;;;28.72;47.65;98460.25;2090427;28;19964;-52
2022/07/01 00:16:39;;;;;;;;;;;;;;;28.72;47.71;98463.81;2090121;28;20350;-51
2022/07/01 00:17:42;;;;;;;;;;;;;;;28.72;47.54;98461.09;2091972;28;20004;-52
2022/07/01 00:18:43;;;;;;;;;;;;;;;28.71;47.56;98464.91;2090049;28;19928;-51
2022/07/01 00:19:44;;;;;;;;;;;;;;;28.70;47.56;98463.28;2090944;28;20585;-53
2022/07/01 00:20:45;;;;;;;;;;;;;;;28.70;47.66;98471.47;2091797;28;19929;-49
2022/07/01 00:21:47;;;;;;;;;;;;;;;28.71;47.64;98459.44;2092300;28;20406;-49
2022/07/01 00:22:47;;;;;;;;;;;;;;;28.70;47.43;98460.53;2090902;28;19932;-50
2022/07/01 00:23:49;;;;;;;;;;;;;;;28.72;47.55;98465.72;2092410;28;19929;-50
2022/07/01 00:24:49;;;;;;;;;;;;;;;28.71;47.65;98464.09;2091784;28;20465;-49
2022/07/01 00:25:51;;;;;;;;;;;;;;;28.71;47.71;98458.63;2090586;28;19944;-49
2022/07/01 00:26:52;;;;;;;;;;;;;;;28.69;47.66;98461.63;2091060;28;19947;-49
2022/07/01 00:27:53;;;;;;;;;;;;;;;28.69;47.67;98469.00;2088470;28;20008;-49
2022/07/01 00:28:54;;;;;;;;;;;;;;;28.69;47.58;98460.81;2088305;28;19933;-49
2022/07/01 00:29:55;;;;;;;;;;;;;;;28.69;47.59;98469.00;2092233;28;20265;-50
2022/07/01 00:30:57;;;;;;;;;;;;;;;28.69;47.53;98471.72;2091174;28;19935;-48
2022/07/01 00:31:59;;;;;;;;;;;;;;;28.68;47.63;98476.38;2091410;28;19932;-48
2022/07/01 00:33:00;;;;;;;;;;;;;;;28.68;47.73;98473.63;2088844;28;19929;-54
2022/07/01 00:34:01;;;;;;;;;;;;;;;28.70;47.54;98473.38;2089837;28;21036;-51
2022/07/01 00:35:02;;;;;;;;;;;;;;;28.68;47.49;98475.56;2088381;28;19932;-52
2022/07/01 00:36:04;;;;;;;;;;;;;;;28.68;47.73;98475.56;2087302;28;19928;-53
2022/07/01 00:37:04;;;;;;;;;;;;;;;28.66;47.53;98467.63;2083978;28;19950;-53
2022/07/01 00:38:06;;;;;;;;;;;;;;;28.68;47.58;98472.81;2087699;28;19934;-51
2022/07/01 00:39:06;;;;;;;;;;;;;;;28.67;47.74;98480.19;2087998;28;19924;-49
2022/07/01 00:40:08;;;;;;;;;;;;;;;28.67;47.81;98474.75;2090594;28;19938;-53
2022/07/01 00:41:09;;;;;;;;;;;;;;;28.68;47.54;98481.00;2087345;28;20560;-49
2022/07/01 00:42:11;;;;;;;;;;;;;;;28.69;47.67;98478.00;2088500;28;19938;-50
2022/07/01 00:43:11;;;;;;;;;;;;;;;28.68;47.73;98479.09;2087065;28;19933;-53
2022/07/01 00:44:19;;;;;;;;;;;;;;;28.67;47.89;98480.19;2088354;28;20024;-51
2022/07/01 00:45:20;;;;;;;;;;;;;;;28.67;47.79;98482.09;2085511;28;19928;-53
2022/07/01 00:46:24;;;;;;;;;;;;;;;28.66;47.79;98478.53;2091235;28;20404;-49
2022/07/01 00:47:26;;;;;;;;;;;;;;;28.65;47.87;98479.66;2087430;28;19963;-50
2022/07/01 00:48:26;;;;;;;;;;;;;;;28.65;47.68;98481.56;2081076;28;19935;-51
2022/07/01 00:49:28;;;;;;;;;;;;;;;28.65;47.56;98487.81;2081160;28;19925;-52
2022/07/01 00:50:29;;;;;;;;;;;;;;;28.64;47.63;98486.19;2084481;28;19951;-54
2022/07/01 00:51:30;;;;;;;;;;;;;;;28.67;47.62;98495.75;2083175;28;20070;-48
2022/07/01 00:52:32;;;;;;;;;;;;;;;28.65;47.84;98487.81;2087598;28;19996;-52
2022/07/01 00:53:34;;;;;;;;;;;;;;;28.65;47.81;98492.47;2090460;28;20113;-50
2022/07/01 00:54:35;;;;;;;;;;;;;;;28.65;47.68;98493.28;2091510;28;19924;-51
2022/07/01 00:55:37;;;;;;;;;;;;;;;28.64;47.97;98488.94;2085542;28;19955;-51
2022/07/01 00:56:37;;;;;;;;;;;;;;;28.67;47.75;98490.31;2083151;28;20027;-49
2022/07/01 00:57:39;;;;;;;;;;;;;;;28.63;47.61;98490.00;2088270;28;20402;-54
2022/07/01 00:58:40;;;;;;;;;;;;;;;28.65;47.71;98490.56;2084385;28;19925;-49
2022/07/01 00:59:42;;;;;;;;;;;;;;;28.63;47.72;98481.81;2088472;28;20019;-51
2022/07/01 01:00:42;;;;;;;;;;;;;;;28.63;47.70;98490.00;2091746;28;19929;-52
2022/07/01 01:01:45;;;;;;;;;;;;;;;28.63;47.82;98487.28;2090175;28;19928;-49
2022/07/01 01:02:46;;;;;;;;;;;;;;;28.64;47.82;98485.34;2088989;28;19924;-49
2022/07/01 01:03:48;;;;;;;;;;;;;;;28.65;47.63;98487.81;2090306;28;19936;-50
2022/07/01 01:04:48;;;;;;;;;;;;;;;28.65;47.56;98484.28;2087317;28;19928;-49
2022/07/01 01:05:50;;;;;;;;;;;;;;;28.63;47.93;98486.47;2090989;28;20225;-50
2022/07/01 01:06:51;;;;;;;;;;;;;;;28.62;47.69;98482.91;2086524;28;20007;-48
2022/07/01 01:07:52;;;;;;;;;;;;;;;28.63;47.90;98473.63;2088452;28;19944;-48
2022/07/01 01:08:53;;;;;;;;;;;;;;;28.62;47.90;98482.91;2089956;28;20493;-49
2022/07/01 01:09:55;;;;;;;;;;;;;;;28.63;47.61;98484.53;2091169;28;20007;-50
2022/07/01 01:10:56;;;;;;;;;;;;;;;28.62;47.63;98479.38;2090447;28;19939;-50
2022/07/01 01:11:58;;;;;;;;;;;;;;;28.63;47.57;98484.53;2088314;28;19938;-48
2022/07/01 01:12:58;;;;;;;;;;;;;;;28.63;47.83;98484.53;2087661;28;19958;-49
2022/07/01 01:14:00;;;;;;;;;;;;;;;28.63;47.61;98479.09;2086353;28;19944;-49
2022/07/01 01:15:01;;;;;;;;;;;;;;;28.64;47.86;98479.91;2087565;28;19932;-52
2022/07/01 01:16:02;;;;;;;;;;;;;;;28.63;47.82;98483.72;2089933;28;19964;-50
2022/07/01 01:17:04;;;;;;;;;;;;;;;28.63;47.65;98486.47;2089702;28;20448;-50
2022/07/01 01:18:06;;;;;;;;;;;;;;;28.61;47.61;98481.28;2090923;28;20015;-48
2022/07/01 01:19:07;;;;;;;;;;;;;;;28.62;47.80;98482.91;2090486;28;20232;-50
2022/07/01 01:20:09;;;;;;;;;;;;;;;28.63;47.90;98483.72;2090868;28;19932;-48
2022/07/01 01:21:11;;;;;;;;;;;;;;;28.63;47.60;98481.00;2091247;28;19958;-50
2022/07/01 01:22:15;;;;;;;;;;;;;;;28.62;47.64;98482.91;2090178;28;20063;-49
2022/07/01 01:23:16;;;;;;;;;;;;;;;28.63;47.79;98486.47;2091318;28;19928;-49
2022/07/01 01:24:18;;;;;;;;;;;;;;;28.60;47.62;98489.75;2089299;28;20349;-50
2022/07/01 01:25:18;;;;;;;;;;;;;;;28.58;47.85;98489.19;2087868;28;19928;-49
2022/07/01 01:26:21;;;;;;;;;;;;;;;28.59;47.56;98494.38;2090021;28;19982;-50
2022/07/01 01:27:22;;;;;;;;;;;;;;;28.59;47.65;98493.56;2087740;28;19924;-50
2022/07/01 01:28:24;;;;;;;;;;;;;;;28.60;47.59;98492.47;2088846;28;20384;-50
2022/07/01 01:29:25;;;;;;;;;;;;;;;28.59;47.73;98496.31;2091268;28;20001;-52
2022/07/01 01:30:26;;;;;;;;;;;;;;;28.58;47.65;98497.38;2090419;28;19969;-49
2022/07/01 01:31:28;;;;;;;;;;;;;;;28.57;47.93;98495.75;2090657;28;19925;-53
2022/07/01 01:32:30;;;;;;;;;;;;;;;28.58;47.66;98500.91;2087775;28;19947;-52
2022/07/01 01:33:31;;;;;;;;;;;;;;;28.58;47.84;98503.66;2087743;28;20684;-51
2022/07/01 01:34:32;;;;;;;;;;;;;;;28.57;48.01;98506.66;2090876;28;19939;-51
2022/07/01 01:35:33;;;;;;;;;;;;;;;28.57;47.69;98503.94;2088845;28;19940;-50
2022/07/01 01:36:36;;;;;;;;;;;;;;;28.58;47.63;98508.28;2091183;28;19924;-49
2022/07/01 01:37:36;;;;;;;;;;;;;;;28.58;47.96;98508.28;2089342;28;20433;-51
2022/07/01 01:38:38;;;;;;;;;;;;;;;28.58;47.76;98516.47;2087222;28;20023;-51
2022/07/01 01:39:39;;;;;;;;;;;;;;;28.58;47.80;98513.75;2090559;28;20477;-51
2022/07/01 01:40:40;;;;;;;;;;;;;;;28.57;47.71;98526.56;2089086;28;20028;-47
2022/07/01 01:41:41;;;;;;;;;;;;;;;28.57;47.69;98523.03;2090861;28;19928;-50
2022/07/01 01:42:43;;;;;;;;;;;;;;;28.56;47.81;98522.22;2085921;28;22064;-51
2022/07/01 01:43:44;;;;;;;;;;;;;;;28.56;47.71;98519.50;2088182;28;19925;-51
2022/07/01 01:44:45;;;;;;;;;;;;;;;28.57;47.79;98514.84;2085041;28;19968;-50
2022/07/01 01:45:46;;;;;;;;;;;;;;;28.59;47.73;98515.41;2088706;28;19924;-50
2022/07/01 01:46:47;;;;;;;;;;;;;;;28.58;47.70;98508.28;2090097;28;20409;-47
2022/07/01 01:47:48;;;;;;;;;;;;;;;28.56;47.69;98507.75;2088969;28;19929;-50
2022/07/01 01:48:49;;;;;;;;;;;;;;;28.56;48.08;98505.03;2089208;28;20242;-47
2022/07/01 01:49:50;;;;;;;;;;;;;;;28.56;47.71;98508.56;2091411;28;19932;-48
2022/07/01 01:50:51;;;;;;;;;;;;;;;28.55;47.52;98501.47;2089959;28;19937;-51
2022/07/01 01:51:54;;;;;;;;;;;;;;;28.58;47.87;98500.91;2089461;28;19932;-47
2022/07/01 01:52:55;;;;;;;;;;;;;;;28.58;47.92;98500.09;2090688;28;19935;-48
2022/07/01 01:53:56;;;;;;;;;;;;;;;28.61;47.85;98492.22;2088265;28;19928;-49
2022/07/01 01:54:58;;;;;;;;;;;;;;;28.61;47.72;98491.38;2083421;28;20533;-47
2022/07/01 01:55:58;;;;;;;;;;;;;;;28.59;47.73;98488.13;2091678;28;20011;-46
2022/07/01 01:57:01;;;;;;;;;;;;;;;28.60;47.77;98487.00;2090203;28;20032;-50
2022/07/01 01:58:01;;;;;;;;;;;;;;;28.56;47.67;98478.56;2084420;28;19972;-52
2022/07/01 01:59:04;;;;;;;;;;;;;;;28.54;47.67;98480.72;2086859;28;19936;-50
2022/07/01 02:00:05;;;;;;;;;;;;;;;28.58;47.97;98478.28;2088399;28;19932;-54
2022/07/01 02:01:07;;;;;;;;;;;;;;;28.59;47.81;98479.94;2086867;28;19975;-49
2022/07/01 02:02:08;;;;;;;;;;;;;;;28.59;47.91;98478.00;2090396;28;20047;-53
2022/07/01 02:03:10;;;;;;;;;;;;;;;28.56;47.59;98484.03;2087721;28;20406;-49
2022/07/01 02:04:10;;;;;;;;;;;;;;;28.57;47.74;98477.47;2087889;28;20028;-52
2022/07/01 02:05:13;;;;;;;;;;;;;;;28.59;47.62;98486.19;2087339;28;20003;-51
2022/07/01 02:06:14;;;;;;;;;;;;;;;28.58;47.86;98481.81;2089115;28;19928;-51
2022/07/01 02:07:17;;;;;;;;;;;;;;;28.61;47.71;98481.28;2085776;28;19939;-50
2022/07/01 02:08:18;;;;;;;;;;;;;;;28.58;47.72;98483.72;2084416;28;21265;-51
2022/07/01 02:09:20;;;;;;;;;;;;;;;28.58;47.89;98481.81;2089089;28;19951;-50
2022/07/01 02:10:21;;;;;;;;;;;;;;;28.57;47.90;98479.38;2088625;28;20369;-50
2022/07/01 02:11:22;;;;;;;;;;;;;;;28.58;47.71;98479.09;2088577;28;20033;-50
2022/07/01 02:12:23;;;;;;;;;;;;;;;28.58;47.80;98473.63;2088480;28;19939;-52
2022/07/01 02:13:24;;;;;;;;;;;;;;;28.57;47.96;98480.19;2085356;28;20027;-52
2022/07/01 02:14:25;;;;;;;;;;;;;;;28.57;47.63;98476.66;2087713;28;19925;-54
2022/07/01 02:15:26;;;;;;;;;;;;;;;28.57;48.02;98473.91;2085364;28;20020;-51
2022/07/01 02:16:28;;;;;;;;;;;;;;;28.57;47.81;98477.47;2090084;28;19929;-51
2022/07/01 02:17:29;;;;;;;;;;;;;;;28.56;47.61;98475.84;2089673;28;19935;-53
2022/07/01 02:18:32;;;;;;;;;;;;;;;28.59;47.69;98478.00;2087353;28;20510;-53
2022/07/01 02:19:33;;;;;;;;;;;;;;;28.54;47.66;98477.19;2088230;28;20010;-50
2022/07/01 02:20:34;;;;;;;;;;;;;;;28.56;47.62;98477.75;2090358;28;19924;-50
2022/07/01 02:21:35;;;;;;;;;;;;;;;28.57;47.81;98482.91;2088836;28;20396;-50
2022/07/01 02:22:37;;;;;;;;;;;;;;;28.55;47.68;98479.63;2088321;28;20358;-49
2022/07/01 02:23:40;;;;;;;;;;;;;;;28.57;47.87;98479.38;2087865;28;21269;-51
2022/07/01 02:24:40;;;;;;;;;;;;;;;28.56;47.92;98478.56;2087626;28;20433;-50
2022/07/01 02:25:42;;;;;;;;;;;;;;;28.56;47.68;98477.75;2089772;28;19997;-49
2022/07/01 02:26:43;;;;;;;;;;;;;;;28.58;47.70;98478.28;2088104;28;19924;-49
2022/07/01 02:27:44;;;;;;;;;;;;;;;28.55;47.77;98476.09;2086570;28;19925;-49
2022/07/01 02:28:45;;;;;;;;;;;;;;;28.56;47.84;98478.56;2081847;28;19928;-49
2022/07/01 02:29:46;;;;;;;;;;;;;;;28.57;47.61;98487.56;2089304;28;20306;-50
2022/07/01 02:30:47;;;;;;;;;;;;;;;28.57;47.53;98491.09;2087589;28;19932;-52
2022/07/01 02:31:48;;;;;;;;;;;;;;;28.56;47.58;98489.47;2089960;28;19935;-50
2022/07/01 02:32:49;;;;;;;;;;;;;;;28.56;47.77;98494.13;2088353;28;19924;-53
2022/07/01 02:33:50;;;;;;;;;;;;;;;28.55;47.76;98498.72;2086724;28;19925;-50
2022/07/01 02:34:51;;;;;;;;;;;;;;;28.56;47.60;98488.66;2087981;28;19928;-53
2022/07/01 02:35:53;;;;;;;;;;;;;;;28.57;47.74;98507.47;2088764;28;20019;-50
2022/07/01 02:36:55;;;;;;;;;;;;;;;28.56;47.76;98505.84;2089444;28;20422;-49
2022/07/01 02:37:58;;;;;;;;;;;;;;;28.57;47.65;98506.66;2089589;28;20019;-51
2022/07/01 02:38:59;;;;;;;;;;;;;;;28.57;47.72;98512.94;2088223;28;19939;-49
2022/07/01 02:40:00;;;;;;;;;;;;;;;28.55;47.60;98519.75;2089677;28;19932;-49
2022/07/01 02:41:02;;;;;;;;;;;;;;;28.54;47.54;98524.38;2087913;28;20306;-49
2022/07/01 02:43:22;;;;;;;;;;;;;;;28.53;47.88;98525.50;2072058;28;20529;-49
2022/07/01 02:44:23;;;;;;;;;;;;;;;28.55;47.58;98526.03;2085399;28;19935;-47
2022/07/01 02:45:25;;;;;;;;;;;;;;;28.55;47.77;98525.19;2086343;28;20015;-53
2022/07/01 02:46:26;;;;;;;;;;;;;;;28.53;47.70;98528.22;2089492;28;20027;-49
2022/07/01 02:47:31;;;;;;;;;;;;;;;28.54;47.92;98529.03;2088051;28;19932;-50
2022/07/01 02:48:32;;;;;;;;;;;;;;;28.53;47.62;98528.22;2087645;28;19928;-50
2022/07/01 02:49:33;;;;;;;;;;;;;;;28.52;47.97;98532.03;2086435;28;20090;-50
2022/07/01 02:50:35;;;;;;;;;;;;;;;28.52;47.79;98532.03;2088428;28;19935;-52
2022/07/01 02:51:35;;;;;;;;;;;;;;;28.53;47.77;98530.94;2089019;28;19993;-47
2022/07/01 02:52:38;;;;;;;;;;;;;;;28.53;47.78;98530.94;2085986;28;20039;-49
2022/07/01 02:53:41;;;;;;;;;;;;;;;28.52;47.55;98524.66;2084955;28;20313;-50
2022/07/01 02:54:42;;;;;;;;;;;;;;;28.53;47.73;98522.75;2083323;28;20493;-51
2022/07/01 02:55:43;;;;;;;;;;;;;;;28.52;47.78;98526.56;2088597;28;19928;-48
2022/07/01 02:56:44;;;;;;;;;;;;;;;28.50;47.80;98535.03;2089361;28;21224;-49
2022/07/01 02:57:46;;;;;;;;;;;;;;;28.52;47.89;98530.09;2089175;28;19935;-50
2022/07/01 02:58:46;;;;;;;;;;;;;;;28.51;47.78;98539.41;2087055;28;19928;-50
2022/07/01 02:59:48;;;;;;;;;;;;;;;28.51;47.67;98541.31;2083520;28;19932;-48
2022/07/01 03:00:50;;;;;;;;;;;;;;;28.50;47.57;98539.66;2088845;28;19931;-52
2022/07/01 03:01:51;;;;;;;;;;;;;;;28.50;47.63;98547.84;2083920;28;19928;-50
2022/07/01 03:02:52;;;;;;;;;;;;;;;28.52;47.63;98551.13;2081110;28;19928;-49
2022/07/01 03:03:54;;;;;;;;;;;;;;;28.51;47.57;98546.75;2086850;28;20570;-50
2022/07/01 03:04:54;;;;;;;;;;;;;;;28.49;47.56;98549.75;2090928;28;19928;-48
2022/07/01 03:05:56;;;;;;;;;;;;;;;28.46;47.74;98555.75;2091453;28;20007;-47
2022/07/01 03:06:57;;;;;;;;;;;;;;;28.44;47.63;98548.94;2089288;28;20608;-47
2022/07/01 03:07:58;;;;;;;;;;;;;;;28.45;47.86;98558.75;2089890;28;19924;-51
2022/07/01 03:09:00;;;;;;;;;;;;;;;28.46;47.90;98554.94;2085442;28;19936;-51
2022/07/01 03:10:02;;;;;;;;;;;;;;;28.48;47.65;98555.50;2090667;28;20080;-50
2022/07/01 03:11:02;;;;;;;;;;;;;;;28.46;47.83;98554.94;2089815;28;19932;-50
2022/07/01 03:12:24;;;;;;;;;;;;;;;28.45;48.02;98553.31;2090312;28;19929;-51
2022/07/01 03:13:26;;;;;;;;;;;;;;;28.43;47.68;98556.28;2085469;28;19986;-51
2022/07/01 03:14:26;;;;;;;;;;;;;;;28.46;47.92;98557.66;2078893;28;19939;-48
2022/07/01 03:15:28;;;;;;;;;;;;;;;28.46;47.71;98555.75;2088632;28;20416;-49
2022/07/01 03:16:28;;;;;;;;;;;;;;;28.48;47.81;98550.03;2085201;28;20327;-49
2022/07/01 03:17:30;;;;;;;;;;;;;;;28.46;47.73;98554.94;2088469;28;19930;-50
2022/07/01 03:18:31;;;;;;;;;;;;;;;28.46;47.75;98546.75;2085985;28;19943;-48
2022/07/01 03:19:32;;;;;;;;;;;;;;;28.47;47.71;98551.09;2083527;28;20516;-50
2022/07/01 03:20:34;;;;;;;;;;;;;;;28.46;47.54;98546.75;2086589;28;19932;-51
2022/07/01 03:21:35;;;;;;;;;;;;;;;28.47;47.68;98551.94;2088356;28;20383;-52
2022/07/01 03:22:37;;;;;;;;;;;;;;;28.48;47.68;98547.31;2085207;28;19928;-52
2022/07/01 03:23:38;;;;;;;;;;;;;;;28.47;47.96;98551.94;2087247;28;20779;-49
2022/07/01 03:24:40;;;;;;;;;;;;;;;28.48;47.60;98548.13;2086125;28;19932;-51
2022/07/01 03:25:42;;;;;;;;;;;;;;;28.48;47.74;98548.13;2089104;28;20613;-47
2022/07/01 03:26:42;;;;;;;;;;;;;;;28.47;47.73;98546.50;2088496;28;20460;-48
2022/07/01 03:27:47;;;;;;;;;;;;;;;28.47;47.79;98541.03;2087203;28;19933;-52
2022/07/01 03:28:48;;;;;;;;;;;;;;;28.47;47.74;98546.50;2080514;28;19924;-50
2022/07/01 03:29:49;;;;;;;;;;;;;;;28.46;47.37;98549.47;2085942;28;20014;-48
2022/07/01 03:30:50;;;;;;;;;;;;;;;28.48;47.66;98552.75;2083441;28;19939;-47
2022/07/01 03:31:51;;;;;;;;;;;;;;;28.48;47.68;98550.03;2087794;28;20023;-48
2022/07/01 03:32:52;;;;;;;;;;;;;;;28.47;47.73;98548.38;2086628;28;19935;-47
2022/07/01 03:33:54;;;;;;;;;;;;;;;28.46;47.72;98552.22;2086402;28;19997;-49
2022/07/01 03:34:54;;;;;;;;;;;;;;;28.46;47.51;98553.03;2087885;28;19925;-51
2022/07/01 03:35:56;;;;;;;;;;;;;;;28.47;47.78;98556.56;2088031;28;19933;-50
2022/07/01 03:36:57;;;;;;;;;;;;;;;28.47;47.58;98551.09;2088595;28;19928;-50
2022/07/01 03:37:58;;;;;;;;;;;;;;;28.44;47.95;98554.38;2088779;28;19929;-50
2022/07/01 03:39:00;;;;;;;;;;;;;;;28.46;47.64;98557.66;2089090;28;20549;-49
2022/07/01 03:40:03;;;;;;;;;;;;;;;28.45;47.68;98550.59;2086307;28;19959;-50
2022/07/01 03:41:04;;;;;;;;;;;;;;;28.44;47.55;98548.94;2086124;28;19932;-48
2022/07/01 03:42:06;;;;;;;;;;;;;;;28.45;47.73;98561.50;2071615;28;21206;-48
2022/07/01 03:43:07;;;;;;;;;;;;;;;28.45;47.61;98561.50;2082237;28;20507;-51
2022/07/01 03:44:08;;;;;;;;;;;;;;;28.45;47.67;98558.75;2086932;28;19928;-47
2022/07/01 03:45:10;;;;;;;;;;;;;;;28.44;47.52;98557.09;2085389;28;20012;-49
2022/07/01 03:46:12;;;;;;;;;;;;;;;28.44;47.75;98557.91;2085358;28;19932;-51
2022/07/01 03:47:14;;;;;;;;;;;;;;;28.45;47.82;98556.03;2088588;28;20003;-50
2022/07/01 03:48:16;;;;;;;;;;;;;;;28.45;47.58;98547.84;2082523;28;19928;-47
2022/07/01 03:49:18;;;;;;;;;;;;;;;28.42;47.89;98542.91;2085778;28;19986;-49
2022/07/01 03:50:20;;;;;;;;;;;;;;;28.41;47.78;98546.72;2087420;28;19994;-47
2022/07/01 03:51:22;;;;;;;;;;;;;;;28.43;47.78;98533.66;2087773;28;20529;-48
2022/07/01 03:52:22;;;;;;;;;;;;;;;28.43;47.71;98539.13;2086464;28;19933;-50
2022/07/01 03:54:43;;;;;;;;;;;;;;;28.45;47.87;98531.47;2088713;28;19933;-49
2022/07/01 03:55:45;;;;;;;;;;;;;;;28.44;47.53;98529.81;2087653;28;20472;-52
2022/07/01 03:56:46;;;;;;;;;;;;;;;28.44;47.67;98530.66;2088050;28;19932;-52
2022/07/01 03:57:47;;;;;;;;;;;;;;;28.44;47.52;98529.81;2086369;28;19939;-47
2022/07/01 03:58:48;;;;;;;;;;;;;;;28.43;47.51;98533.66;2079819;28;19929;-47
2022/07/01 03:59:49;;;;;;;;;;;;;;;28.42;47.57;98532.84;2089685;28;19932;-47
2022/07/01 04:00:51;;;;;;;;;;;;;;;28.42;47.55;98532.84;2086877;28;20473;-49
2022/07/01 04:01:51;;;;;;;;;;;;;;;28.43;47.67;98533.66;2089920;28;20206;-50
2022/07/01 04:02:53;;;;;;;;;;;;;;;28.43;47.49;98533.66;2088143;28;19924;-50
2022/07/01 04:03:53;;;;;;;;;;;;;;;28.42;47.47;98532.00;2086899;28;19928;-50
2022/07/01 04:04:56;;;;;;;;;;;;;;;28.42;47.55;98532.00;2087321;28;20522;-48
2022/07/01 04:05:57;;;;;;;;;;;;;;;28.42;47.62;98527.38;2088413;28;19931;-52
2022/07/01 04:07:00;;;;;;;;;;;;;;;28.41;47.67;98524.88;2086025;28;19928;-50
2022/07/01 04:08:01;;;;;;;;;;;;;;;28.42;47.69;98524.66;2087726;28;20730;-48
2022/07/01 04:09:02;;;;;;;;;;;;;;;28.41;47.52;98522.16;2079457;28;19936;-51
2022/07/01 04:10:04;;;;;;;;;;;;;;;28.42;47.69;98527.38;2090179;28;19928;-49
2022/07/01 04:11:08;;;;;;;;;;;;;;;28.42;47.70;98526.53;2087292;28;19930;-51
2022/07/01 04:12:12;;;;;;;;;;;;;;;28.41;47.56;98524.88;2088853;28;21081;-49
2022/07/01 04:13:12;;;;;;;;;;;;;;;28.42;47.52;98529.28;2081021;28;19935;-48
2022/07/01 04:14:14;;;;;;;;;;;;;;;28.42;47.83;98529.28;2086784;28;20586;-48
2022/07/01 04:15:15;;;;;;;;;;;;;;;28.40;47.69;98523.25;2087156;28;19928;-49
2022/07/01 04:16:17;;;;;;;;;;;;;;;28.41;47.84;98524.88;2089098;28;20505;-49
2022/07/01 04:17:19;;;;;;;;;;;;;;;28.38;47.77;98522.69;2087705;28;19924;-48
2022/07/01 04:18:19;;;;;;;;;;;;;;;28.40;47.50;98517.81;2088529;28;19928;-49
2022/07/01 04:19:21;;;;;;;;;;;;;;;28.40;47.71;98526.00;2089123;28;20029;-48
2022/07/01 04:20:22;;;;;;;;;;;;;;;28.39;47.42;98517.00;2086183;28;19929;-47
2022/07/01 04:22:41;;;;;;;;;;;;;;;28.35;47.63;98515.88;2089568;28;20093;-51
2022/07/01 04:23:43;;;;;;;;;;;;;;;28.36;47.56;98519.41;2087134;28;20426;-47
2022/07/01 04:24:43;;;;;;;;;;;;;;;28.36;47.59;98522.16;2082351;28;20621;-51
2022/07/01 04:25:45;;;;;;;;;;;;;;;28.34;47.91;98516.16;2088120;28;19971;-54
2022/07/01 04:26:47;;;;;;;;;;;;;;;28.36;47.85;98524.88;2088002;28;19933;-51
2022/07/01 04:27:49;;;;;;;;;;;;;;;28.36;47.73;98517.53;2089963;28;19956;-51
2022/07/01 04:28:49;;;;;;;;;;;;;;;28.35;47.60;98520.53;2081424;28;19935;-52
2022/07/01 04:29:51;;;;;;;;;;;;;;;28.35;47.58;98523.25;2086776;28;20903;-51
2022/07/01 04:30:52;;;;;;;;;;;;;;;28.35;47.79;98521.34;2091387;28;19925;-54
2022/07/01 04:31:53;;;;;;;;;;;;;;;28.35;47.47;98523.25;2088921;28;20023;-50
2022/07/01 04:32:55;;;;;;;;;;;;;;;28.35;47.65;98524.06;2088592;28;19921;-51
2022/07/01 04:33:55;;;;;;;;;;;;;;;28.36;47.74;98525.72;2087711;28;19932;-50
2022/07/01 04:34:57;;;;;;;;;;;;;;;28.35;47.72;98526.78;2087782;28;19932;-50
2022/07/01 04:35:57;;;;;;;;;;;;;;;28.34;47.64;98530.63;2090035;28;20434;-47
2022/07/01 04:36:59;;;;;;;;;;;;;;;28.35;47.78;98521.34;2087899;28;20011;-49
2022/07/01 04:37:59;;;;;;;;;;;;;;;28.34;47.83;98524.34;2085215;28;20058;-49
2022/07/01 04:39:01;;;;;;;;;;;;;;;28.36;47.97;98527.59;2082416;28;20103;-49
2022/07/01 04:40:03;;;;;;;;;;;;;;;28.35;47.68;98524.06;2086738;28;20564;-46
2022/07/01 04:42:25;;;;;;;;;;;;;;;28.36;47.71;98527.59;2082835;28;19971;-49
2022/07/01 04:43:25;;;;;;;;;;;;;;;28.35;47.74;98528.69;2085866;28;19979;-47
2022/07/01 04:44:26;;;;;;;;;;;;;;;28.33;47.76;98522.69;2088785;28;19990;-46
2022/07/01 04:45:28;;;;;;;;;;;;;;;28.30;47.81;98518.59;2081666;28;19928;-45
2022/07/01 04:46:28;;;;;;;;;;;;;;;28.33;47.70;98514.50;2087802;28;19924;-47
2022/07/01 04:47:32;;;;;;;;;;;;;;;28.30;47.75;98510.41;2085136;28;19982;-47
2022/07/01 04:48:33;;;;;;;;;;;;;;;28.33;47.66;98511.78;2084370;28;19997;-49
2022/07/01 04:49:34;;;;;;;;;;;;;;;28.34;47.71;98507.97;2088632;28;20197;-49
2022/07/01 04:50:35;;;;;;;;;;;;;;;28.33;47.82;98503.59;2086883;28;19931;-47
2022/07/01 04:51:36;;;;;;;;;;;;;;;28.34;47.69;98499.81;2088341;28;19951;-47
2022/07/01 04:52:38;;;;;;;;;;;;;;;28.33;47.55;98500.88;2089285;28;19927;-47
2022/07/01 04:53:39;;;;;;;;;;;;;;;28.32;47.67;98501.97;2088138;28;19978;-49
2022/07/01 04:54:41;;;;;;;;;;;;;;;28.32;47.62;98499.25;2087511;28;20387;-48
2022/07/01 04:55:41;;;;;;;;;;;;;;;28.32;47.55;98502.78;2091344;28;20701;-47
2022/07/01 04:56:43;;;;;;;;;;;;;;;28.28;47.88;98499.78;2088380;28;19928;-48
2022/07/01 04:57:46;;;;;;;;;;;;;;;28.30;47.55;98502.22;2086307;28;19939;-50
2022/07/01 04:58:46;;;;;;;;;;;;;;;28.31;47.79;98498.44;2089017;28;19925;-48
2022/07/01 04:59:48;;;;;;;;;;;;;;;28.31;47.63;98503.06;2089235;28;21900;-47
2022/07/01 05:00:50;;;;;;;;;;;;;;;28.29;47.78;98498.69;2089759;28;19928;-49
2022/07/01 05:01:51;;;;;;;;;;;;;;;28.28;47.97;98488.88;2090217;28;20065;-50
2022/07/01 05:02:52;;;;;;;;;;;;;;;28.28;47.58;98488.88;2089873;28;19928;-51
2022/07/01 05:03:54;;;;;;;;;;;;;;;28.27;47.63;98487.22;2090586;28;20579;-49
2022/07/01 05:04:55;;;;;;;;;;;;;;;28.28;47.57;98486.16;2089690;28;19939;-51
2022/07/01 05:05:56;;;;;;;;;;;;;;;28.28;47.66;98485.34;2086406;28;19924;-49
2022/07/01 05:06:57;;;;;;;;;;;;;;;28.28;47.85;98494.34;2086043;28;19924;-51
2022/07/01 05:07:58;;;;;;;;;;;;;;;28.26;47.87;98485.59;2089824;28;19935;-47
2022/07/01 05:08:59;;;;;;;;;;;;;;;28.27;47.81;98486.41;2086570;28;20247;-48
2022/07/01 05:10:00;;;;;;;;;;;;;;;28.27;47.77;98480.94;2085308;28;19924;-50
2022/07/01 05:11:01;;;;;;;;;;;;;;;28.27;47.63;98487.22;2088344;28;19935;-47
2022/07/01 05:12:03;;;;;;;;;;;;;;;28.26;47.63;98485.59;2085975;28;19924;-48
2022/07/01 05:13:07;;;;;;;;;;;;;;;28.27;47.71;98487.22;2083207;28;19932;-51
2022/07/01 05:14:08;;;;;;;;;;;;;;;28.26;47.59;98491.03;2087104;28;19933;-48
2022/07/01 05:15:09;;;;;;;;;;;;;;;28.25;47.73;98486.69;2084991;28;19924;-51
2022/07/01 05:16:11;;;;;;;;;;;;;;;28.23;47.83;98488.06;2085231;28;19933;-49
2022/07/01 05:17:12;;;;;;;;;;;;;;;28.23;47.74;98483.41;2082697;28;19929;-47
2022/07/01 05:22:10;;;;;;;;;;;;;;;28.24;47.59;98476.84;2087654;28;20615;-50
2022/07/01 05:23:11;;;;;;;;;;;;;;;28.23;48.09;98480.69;2085460;28;19975;-52
2022/07/01 05:24:12;;;;;;;;;;;;;;;28.24;47.68;98481.50;2087326;28;19933;-47
2022/07/01 05:25:14;;;;;;;;;;;;;;;28.25;47.85;98483.97;2082956;28;19950;-52
2022/07/01 05:26:17;;;;;;;;;;;;;;;28.24;47.54;98481.50;2086525;28;19932;-49
2022/07/01 05:27:18;;;;;;;;;;;;;;;28.24;47.59;98479.59;2089080;28;20035;-48
2022/07/01 05:28:20;;;;;;;;;;;;;;;28.24;47.68;98478.78;2085776;28;20389;-50
2022/07/01 05:29:22;;;;;;;;;;;;;;;28.23;47.67;98480.69;2088915;28;19940;-47